Time;durP1;ratioP1;P1;durP2;ratioP2;P2;SDS_P1;SDS_P2;PMS_P1;PMS_P2;Temp;Humidity;BMP_temperature;BMP_pressure;BME280_temperature;BME280_humidity;BME280_pressure;Samples;Min_cycle;Max_cycle;Signal;HPM_P1;HPM_P2
2024/01/25 00:00:20;;;;;;;50.17;22.60;;;0.30;99.90;;;;;;4229207;27;20325;-62
2024/01/25 00:02:21;;;;;;;46.20;22.57;;;0.30;99.90;;;;;;4227139;28;20801;-62
2024/01/25 00:04:22;;;;;;;41.37;21.90;;;0.30;99.90;;;;;;4228296;28;20276;-63
2024/01/25 00:06:23;;;;;;;47.57;24.27;;;0.40;99.90;;;;;;4226939;28;20256;-60
2024/01/25 00:08:24;;;;;;;42.30;22.63;;;0.40;99.90;;;;;;4226666;28;20318;-61
2024/01/25 00:10:25;;;;;;;47.30;23.63;;;0.40;99.90;;;;;;4225119;28;20377;-61
2024/01/25 00:12:26;;;;;;;46.73;23.60;;;0.40;99.90;;;;;;4217427;28;20304;-62
2024/01/25 00:14:27;;;;;;;45.93;22.90;;;0.40;99.90;;;;;;4227461;28;20298;-62
2024/01/25 00:16:29;;;;;;;49.03;23.70;;;0.30;99.90;;;;;;4227214;28;20313;-63
2024/01/25 00:18:30;;;;;;;49.93;23.90;;;0.40;99.90;;;;;;4227553;28;20264;-62
2024/01/25 00:20:31;;;;;;;49.70;24.23;;;0.40;99.90;;;;;;4226531;27;20280;-62
2024/01/25 00:22:32;;;;;;;52.03;24.77;;;0.40;99.90;;;;;;4228089;28;20276;-62
2024/01/25 00:24:34;;;;;;;56.67;25.33;;;0.40;99.90;;;;;;4227161;28;20268;-61
2024/01/25 00:26:35;;;;;;;49.83;24.80;;;0.50;99.90;;;;;;4226831;28;20272;-61
2024/01/25 00:28:36;;;;;;;46.73;23.30;;;0.50;99.90;;;;;;4226133;28;20332;-62
2024/01/25 00:30:37;;;;;;;48.90;24.47;;;0.50;99.90;;;;;;4226836;28;20310;-62
2024/01/25 00:32:38;;;;;;;51.03;23.83;;;0.50;99.90;;;;;;4225633;28;20292;-62
2024/01/25 00:34:40;;;;;;;48.97;23.37;;;0.50;99.90;;;;;;4228288;28;20666;-62
2024/01/25 00:36:41;;;;;;;45.43;22.30;;;0.50;99.90;;;;;;4226719;28;20329;-61
2024/01/25 00:38:43;;;;;;;48.83;24.07;;;0.40;99.90;;;;;;4227118;28;20280;-62
2024/01/25 00:40:44;;;;;;;56.97;25.07;;;0.30;99.90;;;;;;4226732;28;20694;-61
2024/01/25 00:42:53;;;;;;;56.37;26.13;;;0.30;99.90;;;;;;4226100;28;20755;-63
2024/01/25 00:44:54;;;;;;;57.13;27.00;;;0.20;99.90;;;;;;4226853;28;20789;-63
2024/01/25 00:46:55;;;;;;;54.47;26.60;;;0.20;99.90;;;;;;4226033;28;20340;-63
2024/01/25 00:48:57;;;;;;;57.77;26.83;;;0.20;99.90;;;;;;4225570;28;21017;-61
2024/01/25 00:50:58;;;;;;;49.37;24.53;;;0.20;99.90;;;;;;4225975;28;20260;-61
2024/01/25 00:52:59;;;;;;;57.53;27.20;;;0.30;99.90;;;;;;4227241;28;20291;-61
2024/01/25 00:55:02;;;;;;;57.07;28.23;;;0.30;99.90;;;;;;4226439;28;20280;-61
2024/01/25 00:57:03;;;;;;;58.23;26.83;;;0.30;99.90;;;;;;4227271;28;20309;-60
2024/01/25 00:59:05;;;;;;;57.73;27.63;;;0.40;99.90;;;;;;4225868;28;20284;-60
2024/01/25 01:01:06;;;;;;;58.57;27.77;;;0.40;99.90;;;;;;4227669;28;20345;-63
2024/01/25 01:03:08;;;;;;;57.60;27.10;;;0.40;99.90;;;;;;4226194;28;20276;-61
2024/01/25 01:05:10;;;;;;;55.40;27.80;;;0.40;99.90;;;;;;4227104;28;20288;-58
2024/01/25 01:07:12;;;;;;;58.97;26.70;;;0.40;99.90;;;;;;4226443;28;20271;-61
2024/01/25 01:09:13;;;;;;;49.00;23.83;;;0.40;99.90;;;;;;4227818;28;20276;-61
2024/01/25 01:11:14;;;;;;;49.57;24.07;;;0.30;99.90;;;;;;4225624;28;20281;-59
2024/01/25 01:13:15;;;;;;;50.93;24.17;;;0.30;99.90;;;;;;4227571;28;20287;-59
2024/01/25 01:15:17;;;;;;;42.07;21.73;;;0.20;99.90;;;;;;4226743;28;20260;-60
2024/01/25 01:17:19;;;;;;;50.00;24.53;;;0.20;99.90;;;;;;4226568;28;20252;-60
2024/01/25 01:19:20;;;;;;;49.80;23.87;;;0.20;99.90;;;;;;4226397;28;20317;-58
2024/01/25 01:21:22;;;;;;;51.77;24.90;;;0.10;99.90;;;;;;4226395;28;20344;-60
2024/01/25 01:23:23;;;;;;;51.10;23.53;;;0.10;99.90;;;;;;4225865;28;20271;-61
2024/01/25 01:25:24;;;;;;;51.73;25.20;;;0.10;99.90;;;;;;4225712;28;20268;-62
2024/01/25 01:27:25;;;;;;;51.97;25.07;;;0.00;99.90;;;;;;4226713;28;20268;-61
2024/01/25 01:29:26;;;;;;;52.70;25.60;;;0.00;99.90;;;;;;4226389;28;20741;-62
2024/01/25 01:31:28;;;;;;;56.33;25.47;;;0.00;99.90;;;;;;4227963;28;20272;-61
2024/01/25 01:33:29;;;;;;;53.33;24.17;;;0.00;99.90;;;;;;4228228;28;20752;-61
2024/01/25 01:35:30;;;;;;;53.70;25.57;;;0.10;99.90;;;;;;4230952;27;20318;-61
2024/01/25 01:37:31;;;;;;;53.83;26.53;;;0.10;99.90;;;;;;4229173;28;20325;-60
2024/01/25 01:39:32;;;;;;;56.60;25.87;;;0.10;99.90;;;;;;4230478;28;20267;-61
2024/01/25 01:41:33;;;;;;;48.03;24.13;;;0.10;99.90;;;;;;4229403;27;20345;-62
2024/01/25 01:43:35;;;;;;;51.60;24.07;;;0.20;99.90;;;;;;4229227;28;20305;-62
2024/01/25 01:45:36;;;;;;;49.73;24.07;;;0.20;99.90;;;;;;4228576;27;20244;-62
2024/01/25 01:47:37;;;;;;;51.07;24.97;;;0.20;99.90;;;;;;4225832;28;20651;-60
2024/01/25 01:49:38;;;;;;;53.80;26.03;;;0.20;99.90;;;;;;4229247;28;20264;-60
2024/01/25 01:51:41;;;;;;;52.57;24.30;;;0.20;99.90;;;;;;4228653;27;20268;-62
2024/01/25 01:53:43;;;;;;;50.97;25.13;;;0.20;99.90;;;;;;4228630;28;20362;-62
2024/01/25 01:55:44;;;;;;;52.33;25.63;;;0.20;99.90;;;;;;4229196;28;20693;-62
2024/01/25 01:57:47;;;;;;;47.37;24.43;;;0.20;99.90;;;;;;4229803;28;20275;-60
2024/01/25 01:59:50;;;;;;;45.33;23.83;;;0.20;99.90;;;;;;4226944;27;20313;-61
2024/01/25 02:01:52;;;;;;;52.30;25.17;;;0.20;99.90;;;;;;4230676;28;20256;-63
2024/01/25 02:03:53;;;;;;;56.97;28.03;;;0.20;99.90;;;;;;4227559;28;20498;-61
2024/01/25 02:05:55;;;;;;;50.23;25.93;;;0.20;99.90;;;;;;4228286;27;20344;-61
2024/01/25 02:07:57;;;;;;;48.27;24.80;;;0.10;99.90;;;;;;4228322;27;20286;-62
2024/01/25 02:09:58;;;;;;;54.17;25.57;;;0.10;99.90;;;;;;4230204;28;20267;-61
2024/01/25 02:12:01;;;;;;;52.60;25.70;;;0.10;99.90;;;;;;4227771;28;20682;-62
2024/01/25 02:14:02;;;;;;;53.73;27.00;;;0.10;99.90;;;;;;4229872;27;20625;-61
2024/01/25 02:16:04;;;;;;;50.77;25.53;;;0.10;99.90;;;;;;4228530;28;20264;-60
2024/01/25 02:18:05;;;;;;;57.27;26.93;;;0.10;99.90;;;;;;4229466;28;20665;-63
2024/01/25 02:20:07;;;;;;;57.00;26.87;;;0.00;99.90;;;;;;4228322;28;20264;-62
2024/01/25 02:22:08;;;;;;;57.10;25.93;;;0.00;99.90;;;;;;4229275;28;20264;-58
2024/01/25 02:24:10;;;;;;;54.40;26.57;;;0.00;99.90;;;;;;4229504;27;20781;-61
2024/01/25 02:26:11;;;;;;;56.10;26.10;;;-0.10;99.90;;;;;;4229084;27;20751;-61
2024/01/25 02:28:12;;;;;;;57.97;27.03;;;-0.10;99.90;;;;;;4229430;28;20252;-61
2024/01/25 02:30:13;;;;;;;53.80;26.30;;;-0.20;99.90;;;;;;4228136;28;20256;-61
2024/01/25 02:32:14;;;;;;;52.13;25.30;;;-0.10;99.90;;;;;;4229978;28;21049;-61
2024/01/25 02:34:16;;;;;;;61.03;27.37;;;-0.20;99.90;;;;;;4228334;28;20321;-61
2024/01/25 02:36:17;;;;;;;51.63;25.73;;;-0.20;99.90;;;;;;4229802;27;20325;-60
2024/01/25 02:38:18;;;;;;;53.87;24.23;;;-0.20;99.90;;;;;;4228707;27;20309;-60
2024/01/25 02:40:19;;;;;;;49.90;25.90;;;-0.30;99.90;;;;;;4228083;28;20272;-62
2024/01/25 02:42:20;;;;;;;55.13;25.43;;;-0.30;99.90;;;;;;4227423;28;20361;-61
2024/01/25 02:44:21;;;;;;;56.60;26.63;;;-0.30;99.90;;;;;;4229299;28;20264;-61
2024/01/25 02:46:23;;;;;;;54.50;24.53;;;-0.30;99.90;;;;;;4226899;28;20614;-60
2024/01/25 02:48:24;;;;;;;54.67;25.30;;;-0.30;99.90;;;;;;4226995;28;20765;-62
2024/01/25 02:50:26;;;;;;;56.93;26.40;;;-0.30;99.90;;;;;;4228748;27;20268;-60
2024/01/25 02:52:27;;;;;;;55.80;24.13;;;-0.30;99.90;;;;;;4228845;27;20284;-60
2024/01/25 02:54:28;;;;;;;54.00;25.53;;;-0.30;99.90;;;;;;4228634;27;20832;-62
2024/01/25 02:56:34;;;;;;;50.97;23.83;;;-0.30;99.90;;;;;;4229221;28;20892;-61
2024/01/25 02:58:36;;;;;;;56.57;26.93;;;-0.30;99.90;;;;;;4228850;28;21006;-61
2024/01/25 03:00:37;;;;;;;51.67;25.53;;;-0.30;99.90;;;;;;4228800;28;20743;-62
2024/01/25 03:02:38;;;;;;;59.07;27.20;;;-0.30;99.90;;;;;;4229421;28;20272;-60
2024/01/25 03:04:39;;;;;;;54.47;25.43;;;-0.30;99.90;;;;;;4228279;28;20760;-62
2024/01/25 03:06:40;;;;;;;52.83;24.93;;;-0.40;99.90;;;;;;4229487;28;20268;-61
2024/01/25 03:08:41;;;;;;;51.50;25.57;;;-0.40;99.90;;;;;;4228006;28;20755;-61
2024/01/25 03:10:42;;;;;;;57.47;24.90;;;-0.40;99.90;;;;;;4228902;28;20310;-60
2024/01/25 03:12:44;;;;;;;57.77;27.83;;;-0.30;99.90;;;;;;4227950;28;20341;-56
2024/01/25 03:14:45;;;;;;;58.47;26.80;;;-0.30;99.90;;;;;;4229295;28;20731;-58
2024/01/25 03:16:46;;;;;;;58.90;27.77;;;-0.30;99.90;;;;;;4228053;28;20404;-60
2024/01/25 03:18:47;;;;;;;64.90;30.00;;;-0.40;99.90;;;;;;4229303;27;20828;-60
2024/01/25 03:20:50;;;;;;;66.17;28.63;;;-0.40;99.90;;;;;;4227847;28;20289;-61
2024/01/25 03:22:52;;;;;;;62.07;27.63;;;-0.40;99.90;;;;;;4229069;28;20333;-60
2024/01/25 03:24:53;;;;;;;58.10;28.03;;;-0.40;99.90;;;;;;4228158;27;20321;-60
2024/01/25 03:26:54;;;;;;;68.43;28.67;;;-0.50;99.90;;;;;;4228616;28;20742;-61
2024/01/25 03:28:55;;;;;;;58.07;27.63;;;-0.50;99.90;;;;;;4228248;28;20272;-60
2024/01/25 03:30:56;;;;;;;61.53;28.30;;;-0.50;99.90;;;;;;4228096;28;20340;-62
2024/01/25 03:32:57;;;;;;;61.63;27.80;;;-0.50;99.90;;;;;;4228459;28;20292;-56
2024/01/25 03:34:59;;;;;;;60.97;27.33;;;-0.50;99.90;;;;;;4228225;28;20268;-60
2024/01/25 03:37:00;;;;;;;61.37;27.33;;;-0.50;99.90;;;;;;4228887;28;20332;-61
2024/01/25 03:39:01;;;;;;;64.10;27.93;;;-0.50;99.90;;;;;;4228167;27;20268;-60
2024/01/25 03:41:02;;;;;;;59.30;25.83;;;-0.50;99.90;;;;;;4229257;27;20264;-61
2024/01/25 03:43:04;;;;;;;62.10;28.30;;;-0.50;99.90;;;;;;4227113;28;20648;-61
2024/01/25 03:45:05;;;;;;;57.63;27.20;;;-0.50;99.90;;;;;;4228703;28;20271;-62
2024/01/25 03:47:07;;;;;;;61.97;26.10;;;-0.50;99.90;;;;;;4227053;28;20358;-63
2024/01/25 03:49:08;;;;;;;59.70;28.83;;;-0.50;99.90;;;;;;4228622;28;20283;-61
2024/01/25 03:51:09;;;;;;;63.33;29.73;;;-0.50;99.90;;;;;;4227605;28;20268;-60
2024/01/25 03:53:10;;;;;;;62.30;27.27;;;-0.50;99.90;;;;;;4228316;28;20775;-61
2024/01/25 03:55:12;;;;;;;59.37;28.10;;;-0.40;99.90;;;;;;4226830;28;20712;-62
2024/01/25 03:57:13;;;;;;;61.47;27.60;;;-0.40;99.90;;;;;;4228110;28;20260;-60
2024/01/25 03:59:14;;;;;;;67.27;30.87;;;-0.40;99.90;;;;;;4227671;28;20256;-61
2024/01/25 04:01:15;;;;;;;64.10;28.70;;;-0.40;99.90;;;;;;4228020;28;20332;-62
2024/01/25 04:03:16;;;;;;;59.80;29.17;;;-0.40;99.90;;;;;;4228107;28;20260;-61
2024/01/25 04:05:18;;;;;;;56.90;27.13;;;-0.40;99.90;;;;;;4227758;28;20305;-62
2024/01/25 04:07:19;;;;;;;58.23;27.90;;;-0.40;99.90;;;;;;4227891;28;20666;-62
2024/01/25 04:09:20;;;;;;;59.87;27.73;;;-0.40;99.90;;;;;;4227354;28;20336;-62
2024/01/25 04:11:21;;;;;;;60.40;27.50;;;-0.30;99.90;;;;;;4228544;28;20301;-62
2024/01/25 04:13:22;;;;;;;56.33;25.53;;;-0.30;99.90;;;;;;4227034;28;20287;-62
2024/01/25 04:15:23;;;;;;;53.60;26.03;;;-0.30;99.90;;;;;;4228235;28;20251;-62
2024/01/25 04:17:25;;;;;;;53.47;26.90;;;-0.30;99.90;;;;;;4227166;28;20273;-62
2024/01/25 04:19:26;;;;;;;61.23;28.07;;;-0.30;99.90;;;;;;4228545;28;20280;-62
2024/01/25 04:21:27;;;;;;;55.00;26.37;;;-0.30;99.90;;;;;;4226770;28;20325;-62
2024/01/25 04:23:29;;;;;;;56.60;28.30;;;-0.30;99.90;;;;;;4228205;28;20317;-61
2024/01/25 04:25:32;;;;;;;55.47;26.50;;;-0.30;99.90;;;;;;4227061;28;20272;-63
2024/01/25 04:27:33;;;;;;;61.80;27.80;;;-0.40;99.90;;;;;;4228184;28;20272;-61
2024/01/25 04:29:37;;;;;;;56.47;26.70;;;-0.30;99.90;;;;;;4226877;28;20305;-61
2024/01/25 04:31:45;;;;;;;58.40;26.53;;;-0.30;99.90;;;;;;4228511;28;20280;-56
2024/01/25 04:33:46;;;;;;;57.73;27.53;;;-0.40;99.90;;;;;;4227197;28;20317;-61
2024/01/25 04:35:47;;;;;;;54.67;26.30;;;-0.40;99.90;;;;;;4227866;28;20276;-62
2024/01/25 04:37:48;;;;;;;55.20;25.77;;;-0.40;99.90;;;;;;4227657;28;20244;-61
2024/01/25 04:39:50;;;;;;;65.47;29.73;;;-0.40;99.90;;;;;;4227184;28;20256;-62
2024/01/25 04:41:51;;;;;;;60.93;27.93;;;-0.40;99.90;;;;;;4227657;28;20318;-61
2024/01/25 04:43:52;;;;;;;63.80;28.17;;;-0.50;99.90;;;;;;4226780;28;20304;-61
2024/01/25 04:45:53;;;;;;;59.93;28.07;;;-0.50;99.90;;;;;;4227992;28;20671;-62
2024/01/25 04:47:55;;;;;;;59.40;26.30;;;-0.60;99.90;;;;;;4225588;28;20268;-59
2024/01/25 04:49:56;;;;;;;56.70;26.70;;;-0.60;99.90;;;;;;4227842;28;20267;-62
2024/01/25 04:51:57;;;;;;;56.33;27.30;;;-0.60;99.90;;;;;;4226804;28;20349;-61
2024/01/25 04:53:58;;;;;;;63.80;28.77;;;-0.60;99.90;;;;;;4227828;28;20304;-58
2024/01/25 04:55:59;;;;;;;58.30;26.80;;;-0.60;99.90;;;;;;4226779;28;20260;-61
2024/01/25 04:58:00;;;;;;;54.17;26.17;;;-0.50;99.90;;;;;;4228101;28;20276;-61
2024/01/25 05:00:02;;;;;;;60.17;27.83;;;-0.50;99.90;;;;;;4226793;28;20329;-59
2024/01/25 05:02:03;;;;;;;75.00;31.37;;;-0.50;99.90;;;;;;4228219;28;20337;-60
2024/01/25 05:04:05;;;;;;;67.63;29.37;;;-0.50;99.90;;;;;;4227043;28;20744;-61
2024/01/25 05:06:06;;;;;;;65.17;31.07;;;-0.50;99.90;;;;;;4228443;28;20256;-62
2024/01/25 05:08:07;;;;;;;65.90;30.27;;;-0.40;99.90;;;;;;4230264;28;20812;-63
2024/01/25 05:10:09;;;;;;;70.10;31.43;;;-0.40;99.90;;;;;;4230392;27;20317;-62
2024/01/25 05:12:10;;;;;;;65.57;30.33;;;-0.40;99.90;;;;;;4230381;28;20264;-62
2024/01/25 05:14:12;;;;;;;69.60;30.60;;;-0.40;99.90;;;;;;4229677;28;20319;-63
2024/01/25 05:16:13;;;;;;;69.93;32.17;;;-0.40;99.90;;;;;;4230471;28;20256;-62
2024/01/25 05:18:14;;;;;;;67.03;32.70;;;-0.40;99.90;;;;;;4229276;28;20265;-62
2024/01/25 05:20:17;;;;;;;65.93;30.47;;;-0.30;99.90;;;;;;4230847;27;20593;-61
2024/01/25 05:22:18;;;;;;;64.47;29.33;;;-0.30;99.90;;;;;;4229637;27;20268;-62
2024/01/25 05:24:19;;;;;;;68.33;31.10;;;-0.30;99.90;;;;;;4230893;27;20264;-62
2024/01/25 05:26:21;;;;;;;63.10;30.57;;;-0.30;99.90;;;;;;4229474;28;21343;-61
2024/01/25 05:28:24;;;;;;;63.07;28.63;;;-0.30;99.90;;;;;;4230405;28;20320;-62
2024/01/25 05:30:25;;;;;;;66.90;29.40;;;-0.30;99.90;;;;;;4229241;28;20264;-62
2024/01/25 05:32:26;;;;;;;58.57;27.13;;;-0.30;99.90;;;;;;4230659;28;20907;-62
2024/01/25 05:34:28;;;;;;;62.63;28.70;;;-0.30;99.90;;;;;;4229514;27;20287;-60
2024/01/25 05:36:29;;;;;;;68.43;32.00;;;-0.30;99.90;;;;;;4230494;27;20780;-61
2024/01/25 05:38:30;;;;;;;75.40;34.83;;;-0.30;99.90;;;;;;4229648;28;20252;-62
2024/01/25 05:40:32;;;;;;;83.40;36.87;;;-0.30;99.90;;;;;;4230064;27;20317;-62
2024/01/25 05:42:33;;;;;;;93.23;40.27;;;-0.30;99.90;;;;;;4220778;28;20269;-63
2024/01/25 05:44:34;;;;;;;81.80;36.93;;;-0.20;99.90;;;;;;4229522;27;20347;-61
2024/01/25 05:46:35;;;;;;;77.97;35.67;;;-0.20;99.90;;;;;;4230271;28;21059;-61
2024/01/25 05:48:36;;;;;;;74.17;33.87;;;-0.20;99.90;;;;;;4229685;27;20316;-59
2024/01/25 05:50:38;;;;;;;74.43;33.87;;;-0.20;99.90;;;;;;4229736;28;20261;-62
2024/01/25 05:52:39;;;;;;;66.83;30.40;;;-0.20;99.90;;;;;;4229179;28;20573;-61
2024/01/25 05:54:40;;;;;;;63.60;30.10;;;-0.10;99.90;;;;;;4230096;27;20334;-61
2024/01/25 05:56:41;;;;;;;61.03;29.50;;;-0.10;99.90;;;;;;4222932;28;20276;-59
2024/01/25 05:58:43;;;;;;;66.47;32.00;;;-0.10;99.90;;;;;;4224031;28;20627;-58
2024/01/25 06:00:44;;;;;;;66.03;31.40;;;-0.10;99.90;;;;;;4226583;28;22029;-64
2024/01/25 06:02:45;;;;;;;74.73;34.53;;;-0.10;99.90;;;;;;4230466;28;20329;-62
2024/01/25 06:04:46;;;;;;;77.13;34.77;;;-0.10;99.90;;;;;;4229315;28;20272;-61
2024/01/25 06:06:48;;;;;;;71.60;34.80;;;-0.10;99.90;;;;;;4229331;28;20260;-61
2024/01/25 06:08:49;;;;;;;78.20;34.60;;;-0.10;99.90;;;;;;4229127;28;20672;-61
2024/01/25 06:10:50;;;;;;;68.03;32.67;;;-0.10;99.90;;;;;;4229560;27;20264;-60
2024/01/25 06:12:51;;;;;;;70.80;33.83;;;0.00;99.90;;;;;;4228841;28;20714;-61
2024/01/25 06:14:52;;;;;;;65.63;30.73;;;0.10;99.90;;;;;;4229400;28;20292;-61
2024/01/25 06:16:53;;;;;;;69.63;31.40;;;0.10;99.90;;;;;;4229437;27;20252;-62
2024/01/25 06:18:54;;;;;;;63.27;31.17;;;0.20;99.90;;;;;;4228273;28;20317;-61
2024/01/25 06:20:56;;;;;;;54.13;27.83;;;0.20;99.90;;;;;;4229544;28;20298;-60
2024/01/25 06:22:57;;;;;;;62.83;27.73;;;0.30;99.90;;;;;;4228456;28;20268;-61
2024/01/25 06:24:58;;;;;;;54.93;27.10;;;0.40;99.90;;;;;;4230026;27;20272;-62
2024/01/25 06:26:59;;;;;;;67.10;34.07;;;0.50;99.90;;;;;;4228413;28;20309;-61
2024/01/25 06:29:01;;;;;;;82.37;39.13;;;0.50;99.90;;;;;;4229968;27;20280;-61
2024/01/25 06:31:02;;;;;;;62.33;32.13;;;0.60;99.90;;;;;;4228672;28;20279;-61
2024/01/25 06:33:03;;;;;;;70.60;33.10;;;0.70;99.90;;;;;;4230079;28;20288;-61
2024/01/25 06:35:05;;;;;;;66.87;31.97;;;0.80;99.90;;;;;;4228296;28;20260;-61
2024/01/25 06:37:06;;;;;;;67.70;32.37;;;0.80;99.90;;;;;;4229679;28;20325;-60
2024/01/25 06:39:08;;;;;;;62.23;30.77;;;0.90;99.90;;;;;;4228517;28;20268;-61
2024/01/25 06:41:09;;;;;;;66.23;32.40;;;0.80;99.90;;;;;;4229601;28;20883;-61
2024/01/25 06:43:11;;;;;;;62.33;28.33;;;0.60;99.90;;;;;;4227294;28;20256;-63
2024/01/25 06:45:12;;;;;;;60.10;27.00;;;0.30;99.90;;;;;;4228606;27;20283;-61
2024/01/25 06:47:14;;;;;;;59.30;28.13;;;0.30;99.90;;;;;;4228305;28;20657;-61
2024/01/25 06:49:15;;;;;;;61.03;30.20;;;0.40;99.90;;;;;;4228934;27;20756;-61
2024/01/25 06:51:16;;;;;;;65.10;31.03;;;0.50;99.90;;;;;;4221217;28;20272;-58
2024/01/25 06:53:17;;;;;;;58.03;29.67;;;0.80;99.90;;;;;;4226025;28;20256;-59
2024/01/25 06:55:18;;;;;;;59.63;28.80;;;1.10;99.90;;;;;;4229316;28;20264;-59
2024/01/25 06:57:20;;;;;;;54.40;27.07;;;1.30;99.90;;;;;;4227615;27;20268;-57
2024/01/25 06:59:21;;;;;;;52.13;25.37;;;1.40;99.90;;;;;;4229097;28;20264;-59
2024/01/25 07:01:23;;;;;;;48.53;23.53;;;1.50;99.90;;;;;;4227397;28;20739;-61
2024/01/25 07:03:24;;;;;;;55.17;25.97;;;1.60;99.90;;;;;;4228816;28;20309;-60
2024/01/25 07:05:26;;;;;;;50.53;24.43;;;1.80;99.90;;;;;;4227815;28;20309;-57
2024/01/25 07:07:27;;;;;;;49.67;25.00;;;2.10;99.90;;;;;;4228478;28;20301;-56
2024/01/25 07:09:28;;;;;;;50.87;26.60;;;2.30;99.90;;;;;;4227955;27;20261;-59
2024/01/25 07:11:30;;;;;;;55.83;28.83;;;2.50;99.90;;;;;;4229573;27;20272;-59
2024/01/25 07:13:31;;;;;;;50.73;27.53;;;2.90;99.90;;;;;;4227693;27;20264;-57
2024/01/25 07:15:32;;;;;;;52.50;26.33;;;3.20;99.90;;;;;;4228876;28;20333;-59
2024/01/25 07:17:33;;;;;;;53.17;29.20;;;3.40;99.90;;;;;;4227746;28;20259;-60
2024/01/25 07:19:34;;;;;;;62.40;33.80;;;3.40;99.90;;;;;;4228379;28;20272;-60
2024/01/25 07:21:36;;;;;;;60.40;31.37;;;3.50;99.90;;;;;;4227550;28;20737;-57
2024/01/25 07:23:37;;;;;;;57.63;28.70;;;3.70;99.90;;;;;;4227723;28;21125;-58
2024/01/25 07:25:38;;;;;;;57.47;30.10;;;4.20;99.90;;;;;;4228319;28;20085;-59
2024/01/25 07:27:39;;;;;;;57.80;29.43;;;4.60;99.90;;;;;;4227681;28;20084;-60
2024/01/25 07:29:44;;;;;;;53.07;29.33;;;4.90;99.90;;;;;;4228120;28;20084;-59
2024/01/25 07:31:45;;;;;;;53.87;30.83;;;5.00;99.90;;;;;;4227686;28;20076;-60
2024/01/25 07:33:47;;;;;;;65.90;35.03;;;5.10;99.90;;;;;;4229298;27;20047;-62
2024/01/25 07:35:48;;;;;;;52.73;28.40;;;5.20;99.90;;;;;;4227019;28;20027;-61
2024/01/25 07:37:49;;;;;;;36.03;18.07;;;5.00;99.90;;;;;;4229009;28;20092;-60
2024/01/25 07:39:50;;;;;;;19.83;9.53;;;5.10;99.90;;;;;;4227620;27;20031;-62
2024/01/25 07:41:51;;;;;;;22.90;9.93;;;5.30;99.90;;;;;;4227514;28;20032;-61
2024/01/25 07:43:55;;;;;;;13.73;4.53;;;5.50;99.90;;;;;;4227431;28;20085;-61
2024/01/25 07:45:56;;;;;;;12.97;3.83;;;5.90;99.90;;;;;;4218163;27;20032;-63
2024/01/25 07:47:57;;;;;;;10.37;3.80;;;6.00;99.90;;;;;;4225802;28;20093;-62
2024/01/25 07:49:58;;;;;;;12.50;3.47;;;6.20;99.90;;;;;;4227877;28;20464;-62
2024/01/25 07:51:59;;;;;;;47.67;25.97;;;6.50;99.90;;;;;;4227902;28;20032;-61
2024/01/25 07:54:00;;;;;;;52.30;25.97;;;6.30;99.90;;;;;;4227702;28;20036;-61
2024/01/25 07:56:02;;;;;;;52.47;26.83;;;6.20;99.90;;;;;;4227523;28;20024;-59
2024/01/25 07:58:03;;;;;;;57.47;26.00;;;5.90;99.90;;;;;;4227131;28;20028;-58
2024/01/25 08:00:05;;;;;;;48.13;25.40;;;5.90;99.90;;;;;;4227636;28;20461;-61
2024/01/25 08:02:06;;;;;;;69.23;31.37;;;5.80;99.90;;;;;;4227563;28;20144;-62
2024/01/25 08:04:07;;;;;;;60.13;30.43;;;5.70;99.90;;;;;;4228223;28;20031;-61
2024/01/25 08:06:08;;;;;;;54.73;29.37;;;5.80;99.90;;;;;;4226040;28;20028;-61
2024/01/25 08:08:10;;;;;;;57.77;30.03;;;6.20;99.90;;;;;;4228254;28;20089;-64
2024/01/25 08:10:11;;;;;;;50.03;25.90;;;6.40;99.90;;;;;;4227264;27;20044;-60
2024/01/25 08:12:12;;;;;;;36.67;17.97;;;6.60;99.90;;;;;;4228433;28;20453;-63
2024/01/25 08:14:13;;;;;;;20.50;8.90;;;7.10;99.90;;;;;;4226658;28;20104;-60
2024/01/25 08:16:19;;;;;;;16.30;6.73;;;7.30;99.90;;;;;;4228152;28;20024;-61
2024/01/25 08:18:22;;;;;;;14.57;5.30;;;7.20;99.90;;;;;;4227184;28;20039;-61
2024/01/25 08:20:23;;;;;;;13.13;3.70;;;7.20;99.90;;;;;;4227276;28;20031;-62
2024/01/25 08:22:25;;;;;;;8.00;3.57;;;7.30;99.90;;;;;;4227005;28;20092;-63
2024/01/25 08:24:26;;;;;;;8.57;3.50;;;7.30;99.90;;;;;;4225345;28;20036;-60
2024/01/25 08:26:27;;;;;;;8.00;2.87;;;7.30;99.90;;;;;;4226734;28;20039;-61
2024/01/25 08:28:28;;;;;;;12.03;3.03;;;7.20;99.90;;;;;;4227292;28;20150;-60
2024/01/25 08:30:29;;;;;;;6.47;2.53;;;7.10;99.90;;;;;;4227898;28;20069;-61
2024/01/25 08:32:30;;;;;;;11.07;2.80;;;7.00;99.90;;;;;;4226906;28;20020;-61
2024/01/25 08:34:31;;;;;;;14.47;4.50;;;6.90;99.90;;;;;;4226155;28;20136;-62
2024/01/25 08:36:33;;;;;;;8.93;2.83;;;6.90;99.90;;;;;;4226452;28;20043;-60
2024/01/25 08:38:34;;;;;;;16.77;6.20;;;6.80;99.90;;;;;;4227941;28;20080;-60
2024/01/25 08:40:35;;;;;;;11.20;3.97;;;6.80;99.90;;;;;;4227249;28;20029;-60
2024/01/25 08:42:36;;;;;;;33.67;15.20;;;6.80;99.90;;;;;;4231699;28;20441;-57
2024/01/25 08:44:44;;;;;;;22.23;9.70;;;6.30;99.90;;;;;;4230073;28;20032;-58
2024/01/25 08:46:45;;;;;;;20.03;8.00;;;6.10;99.90;;;;;;4231365;28;20040;-60
2024/01/25 08:48:46;;;;;;;27.00;11.93;;;6.00;99.90;;;;;;4230633;27;20061;-59
2024/01/25 08:50:52;;;;;;;37.53;17.73;;;5.80;99.90;;;;;;4231355;27;20092;-61
2024/01/25 08:52:54;;;;;;;44.43;22.40;;;5.20;99.90;;;;;;4229731;28;20044;-60
2024/01/25 08:54:55;;;;;;;47.10;23.57;;;4.30;99.90;;;;;;4231130;28;20480;-62
2024/01/25 08:56:56;;;;;;;42.73;20.70;;;3.80;99.90;;;;;;4229848;27;20077;-58
2024/01/25 08:58:57;;;;;;;39.60;19.90;;;3.50;99.90;;;;;;4229706;27;20096;-61
2024/01/25 09:00:58;;;;;;;43.80;22.20;;;3.50;99.90;;;;;;4230431;28;20036;-61
2024/01/25 09:02:59;;;;;;;36.90;18.70;;;3.30;99.90;;;;;;4230568;28;20040;-60
2024/01/25 09:05:01;;;;;;;32.73;16.40;;;3.30;99.90;;;;;;4230774;28;20031;-61
2024/01/25 09:07:02;;;;;;;36.33;18.77;;;3.30;99.90;;;;;;4229880;28;20031;-61
2024/01/25 09:09:03;;;;;;;32.03;16.57;;;3.50;99.90;;;;;;4230756;28;20080;-62
2024/01/25 09:11:04;;;;;;;35.90;16.50;;;3.60;99.90;;;;;;4229887;28;20040;-61
2024/01/25 09:13:06;;;;;;;29.70;14.67;;;3.80;99.90;;;;;;4230870;28;20828;-61
2024/01/25 09:15:08;;;;;;;26.47;11.97;;;3.90;99.90;;;;;;4229341;28;20087;-61
2024/01/25 09:17:09;;;;;;;22.97;10.90;;;4.10;99.90;;;;;;4230923;28;20287;-61
2024/01/25 09:19:10;;;;;;;29.23;11.13;;;4.30;99.90;;;;;;4228623;28;20336;-61
2024/01/25 09:21:11;;;;;;;23.37;9.90;;;4.50;99.90;;;;;;4229996;27;20040;-61
2024/01/25 09:23:13;;;;;;;19.90;9.00;;;4.60;99.90;;;;;;4229526;27;20333;-61
2024/01/25 09:25:14;;;;;;;14.00;4.30;;;4.80;99.90;;;;;;4229392;28;20483;-60
2024/01/25 09:27:15;;;;;;;10.40;3.40;;;5.00;99.90;;;;;;4228482;28;20268;-61
2024/01/25 09:29:16;;;;;;;7.97;2.70;;;5.30;99.90;;;;;;4230190;28;20276;-60
2024/01/25 09:31:17;;;;;;;14.47;4.13;;;5.40;99.90;;;;;;4228301;28;20369;-60
2024/01/25 09:33:19;;;;;;;10.03;2.60;;;5.60;99.90;;;;;;4229145;28;20088;-60
2024/01/25 09:35:20;;;;;;;13.90;3.23;;;5.70;99.90;;;;;;4229428;28;20043;-60
2024/01/25 09:37:23;;;;;;;9.40;2.97;;;5.80;99.90;;;;;;4229158;27;20093;-61
2024/01/25 09:39:24;;;;;;;7.83;2.50;;;6.00;99.90;;;;;;4229727;27;20088;-61
2024/01/25 09:41:26;;;;;;;8.03;3.00;;;6.00;99.90;;;;;;4229291;28;20444;-61
2024/01/25 09:43:28;;;;;;;16.03;3.60;;;6.10;99.90;;;;;;4230057;27;20043;-61
2024/01/25 09:45:31;;;;;;;9.53;3.37;;;6.10;99.90;;;;;;4229251;28;20057;-59
2024/01/25 09:47:32;;;;;;;10.03;3.20;;;6.20;99.90;;;;;;4230311;27;20453;-61
2024/01/25 09:49:34;;;;;;;15.10;4.00;;;6.20;99.90;;;;;;4229369;27;20039;-60
2024/01/25 09:51:41;;;;;;;12.10;3.23;;;6.30;99.90;;;;;;4230352;27;20148;-60
2024/01/25 09:53:42;;;;;;;14.27;4.37;;;6.30;99.90;;;;;;4228250;28;20443;-60
2024/01/25 09:55:47;;;;;;;12.83;3.40;;;6.30;99.90;;;;;;4230485;27;20088;-61
2024/01/25 09:57:52;;;;;;;17.23;3.07;;;6.40;99.90;;;;;;4228963;28;20096;-60
2024/01/25 09:59:57;;;;;;;12.83;5.80;;;6.40;99.90;;;;;;4230307;27;20048;-59
2024/01/25 10:02:01;;;;;;;20.97;7.27;;;6.40;99.90;;;;;;4229039;28;20039;-61
2024/01/25 10:04:06;;;;;;;11.10;4.80;;;6.40;99.90;;;;;;4230782;27;20047;-62
2024/01/25 10:06:08;;;;;;;14.00;5.80;;;6.40;99.90;;;;;;4228941;28;20076;-61
2024/01/25 10:08:13;;;;;;;12.03;4.70;;;6.50;99.90;;;;;;4230043;28;20032;-61
2024/01/25 10:10:14;;;;;;;13.10;4.47;;;6.50;99.90;;;;;;4229139;27;20136;-62
2024/01/25 10:12:16;;;;;;;12.57;5.13;;;6.50;99.90;;;;;;4229182;28;20484;-58
2024/01/25 10:14:17;;;;;;;11.17;5.27;;;6.60;99.90;;;;;;4229239;27;20040;-61
2024/01/25 10:16:19;;;;;;;9.23;4.77;;;6.70;99.90;;;;;;4229371;27;20035;-62
2024/01/25 10:18:22;;;;;;;13.97;5.00;;;6.70;99.90;;;;;;4229523;28;20412;-60
2024/01/25 10:20:25;;;;;;;12.00;3.73;;;6.80;99.90;;;;;;4229034;28;21022;-62
2024/01/25 10:22:27;;;;;;;8.50;3.70;;;6.80;99.90;;;;;;4229630;28;20047;-62